createdAt,value
2022-11-16T00:02:35.000Z,99629.46
2022-11-16T00:07:35.000Z,99638.6
2022-11-16T00:12:35.000Z,99637.43
2022-11-16T00:17:34.000Z,99637.18
2022-11-16T00:22:34.000Z,99636.14
2022-11-16T00:27:35.000Z,99634.83
2022-11-16T00:32:35.000Z,99634.69
2022-11-16T00:37:34.000Z,99634.35
2022-11-16T00:42:34.000Z,99634.93
2022-11-16T00:47:35.000Z,99634.62
2022-11-16T00:52:35.000Z,99633.07
2022-11-16T00:57:34.000Z,99633.87
2022-11-16T01:02:35.000Z,99633.87
2022-11-16T01:07:35.000Z,99632.22
2022-11-16T01:12:34.000Z,99632.38
2022-11-16T01:17:35.000Z,99629.87
2022-11-16T01:22:35.000Z,99628.57
2022-11-16T01:27:35.000Z,99623.98
2022-11-16T01:32:35.000Z,99625.56
2022-11-16T01:37:34.000Z,99626.47
2022-11-16T01:42:34.000Z,99627.24
2022-11-16T01:47:35.000Z,99629.79
2022-11-16T01:52:35.000Z,99630.48
2022-11-16T01:57:34.000Z,99638.91
2022-11-16T02:02:34.000Z,99643.49
2022-11-16T02:07:35.000Z,99645.85
2022-11-16T02:12:35.000Z,99646.3
2022-11-16T02:17:34.000Z,99646.3
2022-11-16T02:22:34.000Z,99650.03
2022-11-16T02:27:35.000Z,99651.88
2022-11-16T02:32:35.000Z,99658.76
2022-11-16T02:37:35.000Z,99660.6
2022-11-16T02:42:35.000Z,99657.91
2022-11-16T02:47:34.000Z,99662.64
2022-11-16T02:52:34.000Z,99662.16
2022-11-16T02:57:34.000Z,99663.89
2022-11-16T03:02:34.000Z,99669.91
2022-11-16T03:07:35.000Z,99672.39
2022-11-16T03:12:34.000Z,99676.52
2022-11-16T03:17:35.000Z,99677.81
2022-11-16T03:22:34.000Z,99679.04
2022-11-16T03:27:34.000Z,99678.07
2022-11-16T03:32:34.000Z,99678.07
2022-11-16T03:37:34.000Z,99688.26
2022-11-16T03:42:35.000Z,99685.15
2022-11-16T03:47:34.000Z,99692.81
2022-11-16T03:52:35.000Z,99696.44
2022-11-16T03:57:34.000Z,99699.36
2022-11-16T04:02:35.000Z,99700.36
2022-11-16T04:07:34.000Z,99693.15
2022-11-16T04:12:35.000Z,99701.36
2022-11-16T04:17:35.000Z,99698.81
2022-11-16T04:22:35.000Z,99702.59
2022-11-16T04:27:34.000Z,99710.41
2022-11-16T04:32:35.000Z,99724.62
2022-11-16T04:37:35.000Z,99724.88
2022-11-16T04:42:35.000Z,99724.83
2022-11-16T04:47:35.000Z,99724.83
2022-11-16T04:52:35.000Z,99723.8
2022-11-16T04:57:34.000Z,99727
2022-11-16T05:02:35.000Z,99734.78
2022-11-16T05:07:35.000Z,99739.27
2022-11-16T05:12:34.000Z,99741.42
2022-11-16T05:17:35.000Z,99745.08
2022-11-16T05:22:35.000Z,99744.99
2022-11-16T05:27:35.000Z,99742.51
2022-11-16T05:32:35.000Z,99746.83
2022-11-16T05:37:35.000Z,99753.22
2022-11-16T05:42:34.000Z,99747.49
2022-11-16T05:47:35.000Z,99750.59
2022-11-16T05:52:35.000Z,99762.72
2022-11-16T05:57:34.000Z,99765.21
2022-11-16T06:02:35.000Z,99765.21
2022-11-16T06:07:34.000Z,99769.51
2022-11-16T06:12:35.000Z,99763.89
2022-11-16T06:17:35.000Z,99757.87
2022-11-16T06:22:34.000Z,99750.57
2022-11-16T06:27:34.000Z,99754.11
2022-11-16T06:32:34.000Z,99757.59
2022-11-16T06:37:35.000Z,99753.96
2022-11-16T06:42:35.000Z,99752.73
2022-11-16T06:47:35.000Z,99752.16
2022-11-16T06:52:35.000Z,99751.1
2022-11-16T06:57:35.000Z,99742.42
2022-11-16T07:02:34.000Z,99742.42
2022-11-16T07:07:35.000Z,99749.78
2022-11-16T07:12:34.000Z,99751.75
2022-11-16T07:17:34.000Z,99751.01
2022-11-16T07:22:35.000Z,99755.24
2022-11-16T07:27:35.000Z,99755.05
2022-11-16T07:37:34.000Z,99747.32
2022-11-16T07:42:35.000Z,99739.69
2022-11-16T07:47:34.000Z,99740.44
2022-11-16T07:52:35.000Z,99739.57
2022-11-16T07:57:35.000Z,99745.26
2022-11-16T08:02:34.000Z,99734.84
2022-11-16T08:07:35.000Z,99736.8
2022-11-16T08:12:34.000Z,99744.28
2022-11-16T08:17:35.000Z,99744.03
2022-11-16T08:22:34.000Z,99744.27
2022-11-16T08:27:34.000Z,99744.27
2022-11-16T08:32:35.000Z,99744.73
2022-11-16T08:37:35.000Z,99747.7
2022-11-16T08:42:34.000Z,99754.96
2022-11-16T08:47:34.000Z,99752.04
2022-11-16T08:52:35.000Z,99752.82
2022-11-16T08:57:35.000Z,99761.16
2022-11-16T09:02:35.000Z,99765.78
2022-11-16T09:07:34.000Z,99768.72
2022-11-16T09:12:35.000Z,99768.96
2022-11-16T09:17:34.000Z,99767.96
2022-11-16T09:22:35.000Z,99764.24
2022-11-16T09:27:35.000Z,99760.86
2022-11-16T09:32:34.000Z,99763.76
2022-11-16T09:37:34.000Z,99760.69
2022-11-16T09:42:35.000Z,99760.69
2022-11-16T09:47:35.000Z,99761.3
2022-11-16T09:52:34.000Z,99762.33
2022-11-16T10:02:34.000Z,99758.02
2022-11-16T10:07:35.000Z,99760.31
2022-11-16T10:12:34.000Z,99761.38
2022-11-16T10:17:35.000Z,99763.99
2022-11-16T10:22:34.000Z,99763.99
2022-11-16T10:27:35.000Z,99764.47
2022-11-16T10:32:35.000Z,99763.88
2022-11-16T10:37:34.000Z,99760.98
2022-11-16T10:42:35.000Z,99762.98
2022-11-16T10:47:42.000Z,99768.75
2022-11-16T10:52:34.000Z,99774.22
2022-11-16T10:57:34.000Z,99779.47
2022-11-16T11:02:34.000Z,99777.19
2022-11-16T11:07:35.000Z,99772.65
2022-11-16T11:12:35.000Z,99766.18
2022-11-16T11:17:35.000Z,99772.32
2022-11-16T11:22:35.000Z,99774.71
2022-11-16T11:27:35.000Z,99767.53
2022-11-16T11:32:34.000Z,99768.8
2022-11-16T11:37:34.000Z,99768.8
2022-11-16T11:42:35.000Z,99767.05
2022-11-16T11:48:04.000Z,99770.98
2022-11-16T11:52:35.000Z,99773.38
2022-11-16T11:57:35.000Z,99774.59
2022-11-16T12:02:35.000Z,99775.66
2022-11-16T12:07:35.000Z,99776.3
2022-11-16T12:12:35.000Z,99771.68
2022-11-16T12:17:35.000Z,99768.55
2022-11-16T12:22:35.000Z,99761.15
2022-11-16T12:27:34.000Z,99761.52
2022-11-16T12:32:35.000Z,99758.15
2022-11-16T12:37:35.000Z,99750.57
2022-11-16T12:42:34.000Z,99745.94
2022-11-16T12:47:34.000Z,99745.57
2022-11-16T12:57:34.000Z,99746.52
2022-11-16T13:02:35.000Z,99750.43
2022-11-16T13:07:35.000Z,99751.02
2022-11-16T13:12:35.000Z,99750.63
2022-11-16T13:17:34.000Z,99753.93
2022-11-16T13:22:35.000Z,99756.36
2022-11-16T13:27:35.000Z,99761.81
2022-11-16T13:32:35.000Z,99756.89
2022-11-16T13:37:34.000Z,99766.39
2022-11-16T13:42:34.000Z,99771.89
2022-11-16T13:47:34.000Z,99776.77
2022-11-16T13:52:50.000Z,99769.57
2022-11-16T14:02:35.000Z,99776.32
2022-11-16T14:07:35.000Z,99781.85
2022-11-16T14:12:34.000Z,99781.77
2022-11-16T14:22:35.000Z,99795.7
2022-11-16T14:27:40.000Z,99792.19
2022-11-16T14:32:34.000Z,99795.64
2022-11-16T14:37:34.000Z,99795.64
2022-11-16T14:47:35.000Z,99802.12
2022-11-16T14:52:35.000Z,99804.39
2022-11-16T14:57:34.000Z,99804.12
2022-11-16T15:02:35.000Z,99807.74
2022-11-16T15:07:34.000Z,99809.27
2022-11-16T15:17:43.000Z,99802.89
2022-11-16T15:22:35.000Z,99802.86
2022-11-16T15:27:34.000Z,99803.05
2022-11-16T15:32:34.000Z,99803.83
2022-11-16T15:37:35.000Z,99806.45
2022-11-16T15:42:35.000Z,99806.45
2022-11-16T15:47:34.000Z,99805.98
2022-11-16T15:52:35.000Z,99805.21
2022-11-16T15:57:34.000Z,99800.9
2022-11-16T16:02:35.000Z,99802.24
2022-11-16T16:07:35.000Z,99797.56
2022-11-16T16:12:35.000Z,99795.74
2022-11-16T16:17:35.000Z,99796.39
2022-11-16T16:22:34.000Z,99794.61
2022-11-16T16:27:35.000Z,99785.94
2022-11-16T16:32:35.000Z,99790.72
2022-11-16T16:37:34.000Z,99789.28
2022-11-16T16:42:35.000Z,99790.94
2022-11-16T16:47:35.000Z,99786.67
2022-11-16T16:52:34.000Z,99786.22
2022-11-16T16:57:35.000Z,99786.22
2022-11-16T17:02:35.000Z,99786.24
2022-11-16T17:07:34.000Z,99781.88
2022-11-16T17:12:34.000Z,99776.9
2022-11-16T17:17:35.000Z,99774.63
2022-11-16T17:22:35.000Z,99770.69
2022-11-16T17:27:35.000Z,99764.92
2022-11-16T17:32:35.000Z,99759.39
2022-11-16T17:37:34.000Z,99757.27
2022-11-16T17:42:34.000Z,99759.54
2022-11-16T17:47:35.000Z,99758.76
2022-11-16T17:52:34.000Z,99761.22
2022-11-16T17:57:35.000Z,99757.34
2022-11-16T18:02:35.000Z,99754.23
2022-11-16T18:07:35.000Z,99747.98
2022-11-16T18:12:35.000Z,99747.98
2022-11-16T18:17:35.000Z,99746.06
2022-11-16T18:22:35.000Z,99741.62
2022-11-16T18:27:35.000Z,99740.6
2022-11-16T18:32:35.000Z,99728.69
2022-11-16T18:37:35.000Z,99729.78
2022-11-16T18:42:34.000Z,99728.44
2022-11-16T18:47:35.000Z,99727.67
2022-11-16T18:52:34.000Z,99720.31
2022-11-16T18:57:34.000Z,99717.62
2022-11-16T19:02:34.000Z,99714.35
2022-11-16T19:07:34.000Z,99720.06
2022-11-16T19:12:35.000Z,99721.09
2022-11-16T19:17:34.000Z,99725.49
2022-11-16T19:27:35.000Z,99721.43
2022-11-16T19:32:35.000Z,99717.47
2022-11-16T19:37:34.000Z,99712.81
2022-11-16T19:42:35.000Z,99710.56
2022-11-16T19:47:35.000Z,99705.05
2022-11-16T19:52:35.000Z,99705.05
2022-11-16T19:57:34.000Z,99704.82
2022-11-16T20:02:34.000Z,99702.89
2022-11-16T20:07:35.000Z,99701.83
2022-11-16T20:12:34.000Z,99702.8
2022-11-16T20:17:34.000Z,99700.23
2022-11-16T20:22:35.000Z,99694.79
2022-11-16T20:27:34.000Z,99693.1
2022-11-16T20:32:35.000Z,99690.57
2022-11-16T20:37:34.000Z,99686.52
2022-11-16T20:42:35.000Z,99684.92
2022-11-16T20:47:35.000Z,99677.32
2022-11-16T20:52:34.000Z,99673.8
2022-11-16T20:57:35.000Z,99669.6
2022-11-16T21:02:35.000Z,99662
2022-11-16T21:07:34.000Z,99662
2022-11-16T21:12:34.000Z,99665.54
2022-11-16T21:17:35.000Z,99666.06
2022-11-16T21:22:42.000Z,99665.18
2022-11-16T21:32:35.000Z,99659.83
2022-11-16T21:37:34.000Z,99655.38
2022-11-16T21:42:35.000Z,99650.57
2022-11-16T21:47:35.000Z,99645.34
2022-11-16T21:57:35.000Z,99642.5
2022-11-16T22:02:34.000Z,99642.31
2022-11-16T22:07:34.000Z,99641.27
2022-11-16T22:12:35.000Z,99639.25
2022-11-16T22:17:34.000Z,99641.24
2022-11-16T22:22:34.000Z,99637.31
2022-11-16T22:27:35.000Z,99633.11
2022-11-16T22:32:35.000Z,99632.19
2022-11-16T22:37:34.000Z,99629.25
2022-11-16T22:47:35.000Z,99621.64
2022-11-16T22:52:35.000Z,99618.46
2022-11-16T22:57:34.000Z,99618.46
2022-11-16T23:02:35.000Z,99615.42
2022-11-16T23:07:35.000Z,99611.19
2022-11-16T23:12:35.000Z,99600.6
2022-11-16T23:17:35.000Z,99604.39
2022-11-16T23:22:34.000Z,99603.29
2022-11-16T23:27:35.000Z,99603.04
2022-11-16T23:32:34.000Z,99601.74
2022-11-16T23:37:35.000Z,99596.59
2022-11-16T23:42:35.000Z,99596.68
2022-11-16T23:47:35.000Z,99592.81
2022-11-16T23:52:34.000Z,99589.31
2022-11-16T23:57:35.000Z,99588.45
